createdAt,value
2023-08-15T00:00:16.008Z,23.84
2023-08-15T00:00:28.212Z,23.84
2023-08-15T00:00:40.301Z,23.85
2023-08-15T00:00:52.343Z,23.85
2023-08-15T00:01:04.461Z,23.86
2023-08-15T00:01:16.537Z,23.84
2023-08-15T00:01:28.705Z,23.85
2023-08-15T00:01:40.732Z,23.85
2023-08-15T00:01:52.737Z,23.86
2023-08-15T00:02:04.937Z,23.84
2023-08-15T00:02:17.032Z,23.84
2023-08-15T00:02:29.001Z,23.84
2023-08-15T00:02:41.066Z,23.84
2023-08-15T00:02:53.233Z,23.83
2023-08-15T00:03:05.632Z,23.82
2023-08-15T00:03:17.991Z,23.81
2023-08-15T00:03:30.225Z,23.83
2023-08-15T00:03:42.322Z,23.80
2023-08-15T00:03:54.554Z,23.82
2023-08-15T00:04:06.613Z,23.83
2023-08-15T00:04:18.572Z,23.84
2023-08-15T00:04:33.026Z,23.84
2023-08-15T00:04:45.036Z,23.86
2023-08-15T00:04:57.345Z,23.85
2023-08-15T00:05:09.580Z,23.87
2023-08-15T00:05:21.695Z,23.88
2023-08-15T00:05:33.704Z,23.89
2023-08-15T00:05:45.689Z,23.89
2023-08-15T00:05:57.666Z,23.90
2023-08-15T00:06:09.646Z,23.91
2023-08-15T00:06:21.990Z,23.92
2023-08-15T00:06:33.931Z,23.92
2023-08-15T00:06:45.897Z,23.92
2023-08-15T00:06:57.913Z,23.93
2023-08-15T00:07:10.800Z,23.95
2023-08-15T00:07:22.880Z,23.96
2023-08-15T00:07:34.964Z,23.97
2023-08-15T00:07:46.965Z,23.96
2023-08-15T00:07:58.911Z,23.96
2023-08-15T00:08:10.933Z,23.94
2023-08-15T00:08:23.028Z,23.95
2023-08-15T00:08:34.974Z,23.96
2023-08-15T00:08:49.279Z,23.97
2023-08-15T00:09:01.392Z,23.98
2023-08-15T00:09:13.380Z,23.98
2023-08-15T00:09:25.393Z,23.98
2023-08-15T00:09:37.421Z,23.98
2023-08-15T00:09:49.394Z,23.98
2023-08-15T00:10:02.113Z,23.99
2023-08-15T00:10:14.071Z,23.99
2023-08-15T00:10:26.083Z,24.00
2023-08-15T00:10:38.129Z,24.02
2023-08-15T00:10:50.163Z,24.03
2023-08-15T00:11:02.112Z,24.02
2023-08-15T00:11:14.081Z,24.04
2023-08-15T00:11:26.099Z,24.04
2023-08-15T00:11:38.086Z,24.04
2023-08-15T00:11:50.015Z,24.05
2023-08-15T00:12:02.248Z,24.05
2023-08-15T00:12:14.225Z,24.05
2023-08-15T00:12:26.247Z,24.05
2023-08-15T00:12:38.211Z,24.03
2023-08-15T00:12:50.218Z,24.04
2023-08-15T00:13:04.134Z,24.04
2023-08-15T00:13:16.165Z,24.03
2023-08-15T00:13:28.422Z,24.03
2023-08-15T00:13:40.465Z,24.01
2023-08-15T00:13:56.752Z,24.02
2023-08-15T00:14:09.083Z,24.01
2023-08-15T00:14:21.115Z,24.01
2023-08-15T00:14:33.276Z,24.01
2023-08-15T00:14:45.275Z,23.97
2023-08-15T00:14:58.074Z,23.96
2023-08-15T00:15:10.611Z,23.98
2023-08-15T00:15:22.662Z,23.99
2023-08-15T00:15:36.121Z,23.97
2023-08-15T00:15:48.149Z,23.97
2023-08-15T00:16:00.154Z,23.94
2023-08-15T00:16:12.163Z,23.93
2023-08-15T00:16:24.551Z,23.92
2023-08-15T00:16:36.601Z,23.89
2023-08-15T00:16:48.699Z,23.88
2023-08-15T00:17:00.793Z,23.85
2023-08-15T00:17:13.162Z,23.86
2023-08-15T00:17:25.536Z,23.86
2023-08-15T00:17:37.575Z,23.87
2023-08-15T00:17:49.650Z,23.87
2023-08-15T00:18:02.019Z,23.88
2023-08-15T00:18:14.128Z,23.90
2023-08-15T00:18:26.188Z,23.91
2023-08-15T00:18:38.146Z,23.92
2023-08-15T00:18:50.310Z,23.94
2023-08-15T00:19:03.771Z,23.93
2023-08-15T00:19:15.752Z,23.93
2023-08-15T00:19:27.747Z,23.93
2023-08-15T00:19:40.591Z,23.92
2023-08-15T00:19:52.559Z,23.90
2023-08-15T00:20:05.105Z,23.90
2023-08-15T00:20:17.060Z,23.90
2023-08-15T00:20:29.114Z,23.89
2023-08-15T00:20:41.088Z,23.89
2023-08-15T00:20:53.077Z,23.89
2023-08-15T00:21:05.081Z,23.87
2023-08-15T00:21:17.032Z,23.88
2023-08-15T00:21:29.128Z,23.86
2023-08-15T00:21:41.093Z,23.85
2023-08-15T00:21:53.103Z,23.84
2023-08-15T00:22:05.218Z,23.82
2023-08-15T00:22:18.609Z,23.80
2023-08-15T00:22:30.586Z,23.76
2023-08-15T00:22:43.007Z,23.78
2023-08-15T00:22:54.980Z,23.77
2023-08-15T00:23:07.131Z,23.77
2023-08-15T00:23:19.120Z,23.75
2023-08-15T00:23:31.057Z,23.75
2023-08-15T00:23:43.005Z,23.73
2023-08-15T00:23:55.288Z,23.73
2023-08-15T00:24:07.425Z,23.71
2023-08-15T00:24:19.415Z,23.71
2023-08-15T00:24:31.447Z,23.71
2023-08-15T00:24:43.462Z,23.69
2023-08-15T00:24:55.426Z,23.69
2023-08-15T00:25:07.696Z,23.67
2023-08-15T00:25:19.768Z,23.66
2023-08-15T00:25:31.778Z,23.66
2023-08-15T00:25:43.840Z,23.65
2023-08-15T00:25:55.836Z,23.64
2023-08-15T00:26:07.818Z,23.63
2023-08-15T00:26:19.793Z,23.63
2023-08-15T00:26:32.052Z,23.61
2023-08-15T00:26:44.036Z,23.61
2023-08-15T00:26:56.025Z,23.60
2023-08-15T00:27:08.001Z,23.59
2023-08-15T00:27:20.115Z,23.57
2023-08-15T00:27:32.354Z,23.55
2023-08-15T00:27:44.374Z,23.52
2023-08-15T00:27:56.391Z,23.52
2023-08-15T00:28:08.345Z,23.49
2023-08-15T00:28:20.353Z,23.47
2023-08-15T00:28:32.306Z,23.44
2023-08-15T00:28:44.323Z,23.45
2023-08-15T00:28:56.319Z,23.45
2023-08-15T00:29:08.344Z,23.44
2023-08-15T00:29:20.272Z,23.44
2023-08-15T00:29:32.235Z,23.43
2023-08-15T00:29:44.225Z,23.43
2023-08-15T00:29:56.300Z,23.44
2023-08-15T00:30:08.766Z,23.43
2023-08-15T00:30:20.839Z,23.44
2023-08-15T00:30:34.114Z,23.44
2023-08-15T00:30:46.184Z,23.45
2023-08-15T00:30:58.309Z,23.44
2023-08-15T00:31:10.331Z,23.45
2023-08-15T00:31:22.489Z,23.45
2023-08-15T00:31:34.505Z,23.46
2023-08-15T00:31:46.469Z,23.45
2023-08-15T00:31:58.502Z,23.42
2023-08-15T00:32:10.562Z,23.44
2023-08-15T00:32:22.603Z,23.41
2023-08-15T00:32:37.031Z,23.43
2023-08-15T00:32:49.232Z,23.42
2023-08-15T00:33:02.039Z,23.43
2023-08-15T00:33:14.151Z,23.44
2023-08-15T00:33:26.077Z,23.44
2023-08-15T00:33:38.105Z,23.43
2023-08-15T00:33:50.078Z,23.43
2023-08-15T00:34:02.151Z,23.43
2023-08-15T00:34:14.107Z,23.43
2023-08-15T00:34:26.124Z,23.44
2023-08-15T00:34:38.107Z,23.44
2023-08-15T00:34:50.042Z,23.44
2023-08-15T00:35:05.562Z,23.45
2023-08-15T00:35:17.535Z,23.43
2023-08-15T00:35:29.517Z,23.42
2023-08-15T00:35:43.837Z,23.42
2023-08-15T00:35:55.865Z,23.42
2023-08-15T00:36:08.276Z,23.42
2023-08-15T00:36:20.249Z,23.42
2023-08-15T00:36:32.214Z,23.44
2023-08-15T00:36:44.171Z,23.44
2023-08-15T00:36:56.145Z,23.45
2023-08-15T00:37:08.097Z,23.45
2023-08-15T00:37:20.371Z,23.45
2023-08-15T00:37:33.063Z,23.47
2023-08-15T00:37:45.118Z,23.48
2023-08-15T00:37:57.335Z,23.46
2023-08-15T00:38:09.303Z,23.48
2023-08-15T00:38:21.308Z,23.50
2023-08-15T00:38:33.324Z,23.51
2023-08-15T00:38:45.382Z,23.51
2023-08-15T00:38:57.446Z,23.52
2023-08-15T00:39:09.449Z,23.55
2023-08-15T00:39:21.457Z,23.57
2023-08-15T00:39:33.386Z,23.57
2023-08-15T00:39:45.356Z,23.57
2023-08-15T00:39:57.373Z,23.58
2023-08-15T00:40:09.949Z,23.58
2023-08-15T00:40:21.918Z,23.60
2023-08-15T00:40:34.000Z,23.62
2023-08-15T00:40:45.989Z,23.60
2023-08-15T00:40:58.012Z,23.60
2023-08-15T00:41:10.572Z,23.62
2023-08-15T00:41:22.503Z,23.63
2023-08-15T00:41:34.432Z,23.62
2023-08-15T00:41:46.422Z,23.64
2023-08-15T00:41:58.475Z,23.65
2023-08-15T00:42:10.471Z,23.64
2023-08-15T00:42:22.506Z,23.65
2023-08-15T00:42:34.492Z,23.65
2023-08-15T00:42:46.452Z,23.65
2023-08-15T00:42:58.446Z,23.64
2023-08-15T00:43:16.125Z,23.65
2023-08-15T00:43:28.056Z,23.62
2023-08-15T00:43:40.037Z,23.62
2023-08-15T00:43:51.998Z,23.62
2023-08-15T00:44:04.262Z,23.60
2023-08-15T00:44:16.209Z,23.58
2023-08-15T00:44:28.160Z,23.56
2023-08-15T00:44:43.735Z,23.53
2023-08-15T00:44:55.735Z,23.53
2023-08-15T00:45:08.190Z,23.50
2023-08-15T00:45:20.271Z,23.49
2023-08-15T00:45:33.654Z,23.48
2023-08-15T00:45:45.946Z,23.50
2023-08-15T00:46:00.832Z,23.51
2023-08-15T00:46:13.033Z,23.52
2023-08-15T00:46:26.620Z,23.52
2023-08-15T00:46:39.282Z,23.52
2023-08-15T00:46:51.461Z,23.53
2023-08-15T00:47:03.665Z,23.51
2023-08-15T00:47:15.820Z,23.50
2023-08-15T00:47:28.465Z,23.50
2023-08-15T00:47:40.994Z,23.52
2023-08-15T00:47:53.125Z,23.52
2023-08-15T00:48:07.300Z,23.53
2023-08-15T00:48:21.128Z,23.53
2023-08-15T00:48:34.005Z,23.53
2023-08-15T00:48:46.286Z,23.54
2023-08-15T00:48:59.358Z,23.55
2023-08-15T00:49:11.575Z,23.55
2023-08-15T00:49:23.686Z,23.55
2023-08-15T00:49:35.799Z,23.56
2023-08-15T00:49:47.864Z,23.56
2023-08-15T00:50:01.082Z,23.57
2023-08-15T00:50:13.472Z,23.57
2023-08-15T00:50:25.859Z,23.58
2023-08-15T00:50:39.558Z,23.59
2023-08-15T00:50:51.645Z,23.61
2023-08-15T00:51:03.966Z,23.62
2023-08-15T00:51:17.734Z,23.63
2023-08-15T00:51:29.760Z,23.62
2023-08-15T00:51:42.044Z,23.62
2023-08-15T00:51:54.187Z,23.62
2023-08-15T00:52:07.144Z,23.62
2023-08-15T00:52:19.285Z,23.63
2023-08-15T00:52:31.504Z,23.63
2023-08-15T00:52:43.649Z,23.61
2023-08-15T00:52:56.351Z,23.62
2023-08-15T00:53:08.980Z,23.62
2023-08-15T00:53:21.018Z,23.62
2023-08-15T00:53:35.181Z,23.62
2023-08-15T00:53:48.286Z,23.61
2023-08-15T00:54:01.272Z,23.62
2023-08-15T00:54:13.809Z,23.62
2023-08-15T00:54:25.858Z,23.62
2023-08-15T00:54:38.541Z,23.63
2023-08-15T00:54:51.603Z,23.64
2023-08-15T00:55:04.199Z,23.65
2023-08-15T00:55:18.538Z,23.65
2023-08-15T00:55:31.626Z,23.66
2023-08-15T00:55:45.235Z,23.66
2023-08-15T00:55:58.954Z,23.68
2023-08-15T00:56:11.650Z,23.67
2023-08-15T00:56:23.769Z,23.68
2023-08-15T00:56:36.201Z,23.67
2023-08-15T00:56:48.194Z,23.68
2023-08-15T00:57:00.589Z,23.69
2023-08-15T00:57:12.655Z,23.68
2023-08-15T00:57:24.718Z,23.65
2023-08-15T00:57:37.270Z,23.65
2023-08-15T00:57:49.270Z,23.66
2023-08-15T00:58:01.357Z,23.64
2023-08-15T00:58:13.492Z,23.64
2023-08-15T00:58:26.014Z,23.65
2023-08-15T00:58:38.274Z,23.66
2023-08-15T00:58:50.567Z,23.65
2023-08-15T00:59:03.758Z,23.66
2023-08-15T00:59:16.102Z,23.66
2023-08-15T00:59:28.123Z,23.65
2023-08-15T00:59:43.443Z,23.67
2023-08-15T00:59:55.678Z,23.67
2023-08-15T01:00:08.271Z,23.66
2023-08-15T01:00:20.338Z,23.65
2023-08-15T01:00:32.689Z,23.66
2023-08-15T01:00:44.738Z,23.66
2023-08-15T01:00:57.345Z,23.65
2023-08-15T01:01:18.649Z,23.63
2023-08-15T01:01:32.189Z,23.63
2023-08-15T01:01:44.609Z,23.62
2023-08-15T01:01:57.383Z,23.59
2023-08-15T01:02:09.587Z,23.58
2023-08-15T01:02:21.714Z,23.59
2023-08-15T01:02:34.300Z,23.60
2023-08-15T01:02:46.404Z,23.61
2023-08-15T01:02:58.710Z,23.59
2023-08-15T01:03:11.324Z,23.61
2023-08-15T01:03:23.854Z,23.61
2023-08-15T01:03:37.289Z,23.61
2023-08-15T01:03:50.417Z,23.60
2023-08-15T01:04:02.940Z,23.60
2023-08-15T01:04:15.840Z,23.59
2023-08-15T01:04:27.910Z,23.59
2023-08-15T01:04:41.882Z,23.57
2023-08-15T01:04:54.113Z,23.56
2023-08-15T01:05:06.597Z,23.52
2023-08-15T01:05:20.734Z,23.50
2023-08-15T01:05:33.099Z,23.49
2023-08-15T01:05:45.410Z,23.48
2023-08-15T01:05:57.851Z,23.47
2023-08-15T01:06:10.345Z,23.46
2023-08-15T01:06:22.392Z,23.45
2023-08-15T01:06:34.340Z,23.45
2023-08-15T01:06:46.275Z,23.47
2023-08-15T01:06:58.958Z,23.47
2023-08-15T01:07:11.370Z,23.48
2023-08-15T01:07:23.607Z,23.49
2023-08-15T01:07:36.105Z,23.50
2023-08-15T01:07:48.625Z,23.51
2023-08-15T01:08:01.120Z,23.52
2023-08-15T01:08:13.181Z,23.51
2023-08-15T01:08:25.136Z,23.51
2023-08-15T01:08:37.093Z,23.48
2023-08-15T01:08:49.368Z,23.48
2023-08-15T01:09:02.098Z,23.47
2023-08-15T01:09:14.399Z,23.48
2023-08-15T01:09:26.359Z,23.47
2023-08-15T01:09:38.930Z,23.47
2023-08-15T01:09:50.912Z,23.47
2023-08-15T01:10:02.893Z,23.48
2023-08-15T01:10:15.000Z,23.48
2023-08-15T01:10:27.176Z,23.49
2023-08-15T01:10:40.921Z,23.48
2023-08-15T01:10:52.933Z,23.48
2023-08-15T01:11:05.420Z,23.49
2023-08-15T01:11:17.441Z,23.48
2023-08-15T01:11:36.620Z,23.49
2023-08-15T01:12:16.047Z,23.51
2023-08-15T01:12:58.953Z,23.53
2023-08-15T01:13:15.162Z,23.54
2023-08-15T01:13:33.014Z,23.53
2023-08-15T01:13:54.465Z,23.54
2023-08-15T01:14:13.306Z,23.55
2023-08-15T01:14:33.773Z,23.56
2023-08-15T01:14:56.274Z,23.56
2023-08-15T01:15:17.998Z,23.57
2023-08-15T01:15:32.774Z,23.59
2023-08-15T01:15:50.716Z,23.60
2023-08-15T01:16:08.324Z,23.60
2023-08-15T01:16:29.269Z,23.61
2023-08-15T01:16:45.169Z,23.61
2023-08-15T01:16:57.923Z,23.60
2023-08-15T01:17:16.780Z,23.61
2023-08-15T01:17:59.523Z,23.61
2023-08-15T01:19:16.488Z,23.51
2023-08-15T01:19:34.523Z,23.49
2023-08-15T01:19:49.748Z,23.48
2023-08-15T01:20:08.009Z,23.47
2023-08-15T01:20:27.450Z,23.45
2023-08-15T01:20:40.449Z,23.44
2023-08-15T01:20:55.713Z,23.44
2023-08-15T01:21:08.548Z,23.44
2023-08-15T01:21:26.287Z,23.43
2023-08-15T01:21:44.639Z,23.43
2023-08-15T01:22:00.137Z,23.44
2023-08-15T01:22:16.935Z,23.43
2023-08-15T01:22:31.969Z,23.45
2023-08-15T01:22:48.033Z,23.44
2023-08-15T01:23:07.143Z,23.44
2023-08-15T01:23:25.100Z,23.43
2023-08-15T01:23:43.409Z,23.44
2023-08-15T01:23:57.129Z,23.44
2023-08-15T01:24:09.174Z,23.44
2023-08-15T01:24:21.526Z,23.44
2023-08-15T01:24:33.898Z,23.44
2023-08-15T01:24:46.360Z,23.44
2023-08-15T01:24:59.169Z,23.46
2023-08-15T01:25:11.115Z,23.46
2023-08-15T01:25:23.095Z,23.46
2023-08-15T01:25:42.410Z,23.46
2023-08-15T01:25:58.523Z,23.47
2023-08-15T01:26:10.810Z,23.47
2023-08-15T01:26:22.842Z,23.45
2023-08-15T01:26:35.645Z,23.44
2023-08-15T01:26:47.659Z,23.44
2023-08-15T01:26:59.625Z,23.45
2023-08-15T01:27:11.608Z,23.46
2023-08-15T01:27:23.833Z,23.45
2023-08-15T01:27:35.952Z,23.44
2023-08-15T01:27:47.965Z,23.44
2023-08-15T01:28:00.778Z,23.44
2023-08-15T01:28:14.067Z,23.44
2023-08-15T01:28:26.021Z,23.43
2023-08-15T01:28:39.984Z,23.43
2023-08-15T01:28:51.923Z,23.44
2023-08-15T01:29:04.592Z,23.43
2023-08-15T01:29:16.584Z,23.42
2023-08-15T01:29:28.810Z,23.42
2023-08-15T01:29:40.753Z,23.41
2023-08-15T01:29:52.749Z,23.40
2023-08-15T01:30:05.820Z,23.39
2023-08-15T01:30:19.589Z,23.38
2023-08-15T01:30:31.718Z,23.39
2023-08-15T01:30:49.847Z,23.38
2023-08-15T01:31:33.643Z,23.38
2023-08-15T01:31:56.049Z,23.34
2023-08-15T01:32:52.988Z,23.27
2023-08-15T01:33:16.560Z,23.27
2023-08-15T01:33:38.671Z,23.27
2023-08-15T01:34:02.066Z,23.24
2023-08-15T01:34:21.957Z,23.22
2023-08-15T01:34:41.917Z,23.23
2023-08-15T01:35:20.500Z,23.22
2023-08-15T01:35:38.986Z,23.21
2023-08-15T01:36:01.134Z,23.21
2023-08-15T01:36:23.941Z,23.20
2023-08-15T01:36:43.205Z,23.21
2023-08-15T01:37:04.299Z,23.21
2023-08-15T01:37:30.487Z,23.20
2023-08-15T01:37:45.892Z,23.19
2023-08-15T01:38:08.341Z,23.20
2023-08-15T01:38:27.615Z,23.20
2023-08-15T01:38:43.106Z,23.20
2023-08-15T01:39:01.713Z,23.20
2023-08-15T01:39:19.032Z,23.18
2023-08-15T01:39:32.198Z,23.20
2023-08-15T01:39:48.269Z,23.21
2023-08-15T01:40:03.275Z,23.22
2023-08-15T01:40:18.603Z,23.23
2023-08-15T01:40:35.001Z,23.23
2023-08-15T01:40:51.172Z,23.24
2023-08-15T01:41:06.799Z,23.24
2023-08-15T01:41:21.846Z,23.23
2023-08-15T01:41:38.853Z,23.22
2023-08-15T01:41:53.786Z,23.20
2023-08-15T01:42:07.409Z,23.20
2023-08-15T01:42:21.979Z,23.18
2023-08-15T01:42:35.123Z,23.17
2023-08-15T01:42:50.466Z,23.16
2023-08-15T01:43:03.858Z,23.15
2023-08-15T01:43:17.727Z,23.11
2023-08-15T01:43:31.148Z,23.11
2023-08-15T01:43:45.132Z,23.08
2023-08-15T01:43:57.378Z,23.08
2023-08-15T01:44:12.664Z,23.07
2023-08-15T01:44:26.109Z,23.06
2023-08-15T01:44:38.633Z,23.07
2023-08-15T01:44:51.483Z,23.08
2023-08-15T01:45:04.367Z,23.09
2023-08-15T01:45:17.696Z,23.10
2023-08-15T01:45:30.784Z,23.10
2023-08-15T01:45:43.216Z,23.11
2023-08-15T01:45:55.982Z,23.11
2023-08-15T01:46:08.850Z,23.11
2023-08-15T01:46:21.064Z,23.12
2023-08-15T01:46:33.479Z,23.12
2023-08-15T01:46:47.927Z,23.11
2023-08-15T01:47:00.482Z,23.09
2023-08-15T01:47:12.567Z,23.09
2023-08-15T01:47:24.591Z,23.08
2023-08-15T01:47:37.369Z,23.06
2023-08-15T01:47:50.478Z,23.05
2023-08-15T01:48:02.582Z,23.03
2023-08-15T01:48:14.625Z,23.00
2023-08-15T01:48:26.536Z,23.00
2023-08-15T01:48:43.052Z,22.88
2023-08-15T01:48:55.053Z,22.85
2023-08-15T01:49:07.018Z,22.84
2023-08-15T01:49:19.008Z,22.86
2023-08-15T01:49:30.948Z,22.88
2023-08-15T01:49:43.073Z,22.89
2023-08-15T01:49:55.072Z,22.91
2023-08-15T01:50:07.697Z,22.91
2023-08-15T01:50:19.696Z,22.94
2023-08-15T01:50:31.677Z,22.94
2023-08-15T01:50:43.725Z,22.96
2023-08-15T01:50:55.861Z,22.97
2023-08-15T01:51:08.402Z,22.99
2023-08-15T01:51:20.388Z,23.00
2023-08-15T01:51:32.381Z,22.98
2023-08-15T01:51:44.412Z,22.99
2023-08-15T01:51:58.209Z,23.00
2023-08-15T01:52:10.321Z,23.01
2023-08-15T01:52:22.329Z,23.02
2023-08-15T01:52:34.327Z,23.02
2023-08-15T01:52:46.350Z,23.02
2023-08-15T01:52:58.383Z,23.04
2023-08-15T01:53:10.347Z,23.05
2023-08-15T01:53:22.410Z,23.06
2023-08-15T01:53:36.009Z,23.05
2023-08-15T01:53:48.029Z,23.04
2023-08-15T01:53:59.995Z,23.02
2023-08-15T01:54:11.934Z,23.04
2023-08-15T01:54:23.983Z,23.04
2023-08-15T01:54:35.967Z,23.06
2023-08-15T01:54:47.914Z,23.06
2023-08-15T01:54:59.887Z,23.06
2023-08-15T01:55:12.139Z,23.07
2023-08-15T01:55:24.162Z,23.07
2023-08-15T01:55:36.099Z,23.08
2023-08-15T01:55:48.180Z,23.09
2023-08-15T01:56:00.099Z,23.09
2023-08-15T01:56:14.084Z,23.09
2023-08-15T01:56:26.129Z,23.09
2023-08-15T01:56:38.130Z,23.10
2023-08-15T01:56:50.076Z,23.10
2023-08-15T01:57:02.051Z,23.11
2023-08-15T01:57:13.988Z,23.11
2023-08-15T01:57:25.948Z,23.11
2023-08-15T01:57:37.893Z,23.10
2023-08-15T01:57:49.813Z,23.10
2023-08-15T01:58:01.810Z,23.11
2023-08-15T01:58:13.737Z,23.12
2023-08-15T01:58:25.728Z,23.12
2023-08-15T01:58:37.713Z,23.13
2023-08-15T01:58:49.680Z,23.12
2023-08-15T01:59:01.669Z,23.15
2023-08-15T01:59:13.629Z,23.13
2023-08-15T01:59:25.616Z,23.15
2023-08-15T01:59:37.622Z,23.14
2023-08-15T01:59:49.560Z,23.13
2023-08-15T02:00:01.507Z,23.13
2023-08-15T02:00:13.714Z,23.15
2023-08-15T02:00:25.760Z,23.16
2023-08-15T02:00:37.709Z,23.15
2023-08-15T02:00:49.951Z,23.13
2023-08-15T02:01:05.135Z,23.15
2023-08-15T02:01:17.207Z,23.14
2023-08-15T02:01:29.193Z,23.12
2023-08-15T02:01:41.238Z,23.14
2023-08-15T02:01:53.234Z,23.14
2023-08-15T02:02:07.819Z,23.13
2023-08-15T02:02:19.995Z,23.15
2023-08-15T02:02:32.054Z,23.16
2023-08-15T02:02:44.164Z,23.17
2023-08-15T02:02:56.192Z,23.16
2023-08-15T02:03:08.186Z,23.15
2023-08-15T02:03:20.217Z,23.15
2023-08-15T02:03:32.221Z,23.13
2023-08-15T02:03:44.202Z,23.12
2023-08-15T02:03:56.232Z,23.13
2023-08-15T02:04:08.206Z,23.13
2023-08-15T02:04:20.210Z,23.11
2023-08-15T02:04:32.158Z,23.10
2023-08-15T02:04:44.136Z,23.10
2023-08-15T02:04:56.751Z,23.08
2023-08-15T02:05:08.969Z,23.08
2023-08-15T02:05:21.120Z,23.09
2023-08-15T02:05:35.614Z,23.08
2023-08-15T02:05:48.140Z,23.07
2023-08-15T02:06:00.249Z,23.09
2023-08-15T02:06:12.309Z,23.09
2023-08-15T02:06:24.298Z,23.11
2023-08-15T02:06:36.213Z,23.11
2023-08-15T02:06:48.151Z,23.11
2023-08-15T02:07:00.192Z,23.10
2023-08-15T02:07:12.184Z,23.11
2023-08-15T02:07:24.177Z,23.11
2023-08-15T02:07:36.105Z,23.12
2023-08-15T02:07:48.032Z,23.11
2023-08-15T02:08:00.263Z,23.11
2023-08-15T02:08:12.206Z,23.13
2023-08-15T02:08:24.228Z,23.16
2023-08-15T02:08:36.192Z,23.15
2023-08-15T02:08:48.140Z,23.16
2023-08-15T02:09:00.159Z,23.16
2023-08-15T02:09:12.100Z,23.15
2023-08-15T02:09:24.145Z,23.16
2023-08-15T02:09:36.103Z,23.17
2023-08-15T02:09:48.083Z,23.17
2023-08-15T02:10:00.288Z,23.18
2023-08-15T02:10:12.231Z,23.18
2023-08-15T02:10:24.279Z,23.18
2023-08-15T02:10:36.259Z,23.18
2023-08-15T02:10:48.279Z,23.18
2023-08-15T02:11:00.273Z,23.18
2023-08-15T02:11:12.351Z,23.19
2023-08-15T02:11:24.364Z,23.19
2023-08-15T02:11:36.357Z,23.19
2023-08-15T02:11:48.368Z,23.20
2023-08-15T02:12:00.293Z,23.19
2023-08-15T02:12:12.203Z,23.17
2023-08-15T02:12:24.205Z,23.18
2023-08-15T02:12:36.220Z,23.17
2023-08-15T02:12:48.244Z,23.16
2023-08-15T02:13:00.229Z,23.16
2023-08-15T02:13:12.213Z,23.15
2023-08-15T02:13:24.168Z,23.15
2023-08-15T02:13:36.128Z,23.14
2023-08-15T02:13:48.383Z,23.11
2023-08-15T02:14:00.309Z,23.11
2023-08-15T02:14:12.327Z,23.10
2023-08-15T02:14:24.287Z,23.10
2023-08-15T02:14:36.241Z,23.08
2023-08-15T02:14:48.231Z,23.07
2023-08-15T02:15:00.202Z,23.04
2023-08-15T02:15:13.120Z,23.03
2023-08-15T02:15:25.165Z,23.02
2023-08-15T02:15:37.159Z,23.01
2023-08-15T02:15:49.192Z,22.98
2023-08-15T02:16:02.206Z,22.95
2023-08-15T02:16:14.286Z,22.94
2023-08-15T02:16:26.290Z,22.94
2023-08-15T02:16:38.282Z,22.93
2023-08-15T02:16:50.257Z,22.92
2023-08-15T02:17:02.248Z,22.91
2023-08-15T02:17:14.448Z,22.92
2023-08-15T02:17:38.170Z,22.91
2023-08-15T02:17:50.173Z,22.94
2023-08-15T02:18:02.197Z,22.94
2023-08-15T02:18:14.211Z,22.94
2023-08-15T02:18:28.365Z,22.96
2023-08-15T02:18:42.281Z,22.98
2023-08-15T02:18:54.702Z,22.99
2023-08-15T02:19:06.770Z,22.97
2023-08-15T02:19:18.764Z,22.97
2023-08-15T02:19:30.730Z,22.97
2023-08-15T02:19:42.882Z,22.99
2023-08-15T02:19:54.936Z,22.98
2023-08-15T02:20:07.422Z,22.98
2023-08-15T02:20:19.605Z,22.99
2023-08-15T02:20:31.564Z,22.99
2023-08-15T02:20:43.580Z,22.99
2023-08-15T02:20:55.758Z,22.98
2023-08-15T02:21:07.812Z,22.99
2023-08-15T02:21:19.859Z,23.00
2023-08-15T02:21:31.918Z,23.01
2023-08-15T02:21:43.887Z,23.01
2023-08-15T02:21:55.933Z,23.02
2023-08-15T02:22:08.159Z,23.03
2023-08-15T02:22:20.329Z,23.03
2023-08-15T02:22:32.637Z,23.02
2023-08-15T02:22:44.990Z,23.02
2023-08-15T02:22:57.002Z,23.02
2023-08-15T02:23:09.036Z,23.00
2023-08-15T02:23:21.331Z,23.01
2023-08-15T02:23:33.264Z,22.99
2023-08-15T02:23:45.210Z,22.95
2023-08-15T02:23:57.174Z,22.93
2023-08-15T02:24:09.177Z,22.91
2023-08-15T02:24:21.221Z,22.91
2023-08-15T02:24:33.180Z,22.90
2023-08-15T02:24:45.137Z,22.90
2023-08-15T02:24:57.137Z,22.91
2023-08-15T02:25:09.274Z,22.90
2023-08-15T02:25:21.366Z,22.89
2023-08-15T02:25:33.377Z,22.90
2023-08-15T02:25:45.365Z,22.91
2023-08-15T02:25:57.334Z,22.91
2023-08-15T02:26:09.283Z,22.94
2023-08-15T02:26:21.320Z,22.95
2023-08-15T02:26:33.526Z,22.95
2023-08-15T02:26:45.504Z,22.96
2023-08-15T02:26:57.493Z,22.97
2023-08-15T02:27:09.592Z,22.98
2023-08-15T02:27:21.804Z,22.99
2023-08-15T02:27:34.014Z,22.97
2023-08-15T02:27:45.981Z,22.97
2023-08-15T02:27:57.947Z,22.97
2023-08-15T02:28:09.916Z,22.96
2023-08-15T02:28:22.074Z,22.96
2023-08-15T02:28:34.166Z,22.98
2023-08-15T02:28:46.128Z,22.96
2023-08-15T02:28:58.102Z,22.98
2023-08-15T02:29:10.026Z,22.99
2023-08-15T02:29:22.071Z,23.00
2023-08-15T02:29:34.076Z,23.00
2023-08-15T02:29:46.092Z,23.02
2023-08-15T02:29:58.111Z,23.03
2023-08-15T02:30:10.472Z,23.02
2023-08-15T02:30:22.389Z,23.02
2023-08-15T02:30:38.237Z,23.02
2023-08-15T02:30:50.301Z,23.02
2023-08-15T02:31:05.982Z,23.03
2023-08-15T02:31:18.190Z,23.05
2023-08-15T02:31:31.628Z,23.07
2023-08-15T02:31:45.029Z,23.07
2023-08-15T02:31:56.948Z,23.08
2023-08-15T02:32:08.941Z,23.08
2023-08-15T02:32:21.000Z,23.09
2023-08-15T02:32:33.223Z,23.09
2023-08-15T02:32:45.493Z,23.09
2023-08-15T02:32:57.601Z,23.11
2023-08-15T02:33:09.637Z,23.11
2023-08-15T02:33:21.712Z,23.10
2023-08-15T02:33:34.111Z,23.10
2023-08-15T02:33:46.113Z,23.10
2023-08-15T02:33:58.032Z,23.11
2023-08-15T02:34:10.008Z,23.12
2023-08-15T02:34:22.002Z,23.12
2023-08-15T02:34:33.993Z,23.12
2023-08-15T02:34:46.012Z,23.14
2023-08-15T02:34:57.967Z,23.15
2023-08-15T02:35:10.168Z,23.15
2023-08-15T02:35:22.131Z,23.17
2023-08-15T02:35:34.540Z,23.17
2023-08-15T02:35:46.633Z,23.18
2023-08-15T02:36:05.595Z,23.17
2023-08-15T02:36:17.543Z,23.17
2023-08-15T02:36:29.562Z,23.17
2023-08-15T02:36:41.493Z,23.18
2023-08-15T02:36:53.467Z,23.18
2023-08-15T02:37:05.535Z,23.17
2023-08-15T02:37:17.513Z,23.16
2023-08-15T02:37:29.554Z,23.13
2023-08-15T02:37:41.527Z,23.12
2023-08-15T02:37:53.497Z,23.13
2023-08-15T02:38:05.477Z,23.12
2023-08-15T02:38:17.475Z,23.12
2023-08-15T02:38:29.460Z,23.14
2023-08-15T02:38:41.465Z,23.12
2023-08-15T02:38:53.513Z,23.12
2023-08-15T02:39:05.738Z,23.12
2023-08-15T02:39:17.930Z,23.13
2023-08-15T02:39:29.906Z,23.13
2023-08-15T02:39:41.970Z,23.12
2023-08-15T02:39:53.893Z,23.13
2023-08-15T02:40:07.474Z,23.13
2023-08-15T02:40:19.478Z,23.14
2023-08-15T02:40:31.520Z,23.12
2023-08-15T02:40:43.766Z,23.12
2023-08-15T02:40:55.743Z,23.12
2023-08-15T02:41:07.765Z,23.14
2023-08-15T02:41:21.085Z,23.15
2023-08-15T02:41:33.026Z,23.16
2023-08-15T02:41:44.984Z,23.16
2023-08-15T02:41:56.982Z,23.17
2023-08-15T02:42:08.957Z,23.17
2023-08-15T02:42:20.871Z,23.16
2023-08-15T02:42:33.702Z,23.16
2023-08-15T02:42:45.699Z,23.14
2023-08-15T02:42:57.670Z,23.13
2023-08-15T02:43:09.965Z,23.10
2023-08-15T02:43:21.984Z,23.07
2023-08-15T02:43:34.003Z,23.04
2023-08-15T02:43:45.992Z,23.03
2023-08-15T02:43:57.970Z,23.00
2023-08-15T02:44:10.089Z,22.98
2023-08-15T02:44:22.128Z,22.98
2023-08-15T02:44:34.520Z,22.94
2023-08-15T02:44:46.744Z,22.94
2023-08-15T02:44:58.692Z,22.93
2023-08-15T02:45:10.885Z,22.92
2023-08-15T02:45:22.892Z,22.92
2023-08-15T02:45:46.806Z,22.92
2023-08-15T02:45:58.773Z,22.94
2023-08-15T02:46:10.764Z,22.93
2023-08-15T02:46:23.418Z,22.94
2023-08-15T02:46:35.485Z,22.97
2023-08-15T02:46:47.487Z,22.99
2023-08-15T02:46:59.502Z,23.00
2023-08-15T02:47:11.472Z,22.98
2023-08-15T02:47:23.610Z,22.99
2023-08-15T02:47:35.837Z,23.00
2023-08-15T02:47:47.894Z,22.99
2023-08-15T02:47:59.952Z,23.01
2023-08-15T02:48:11.894Z,23.02
2023-08-15T02:48:23.875Z,23.02
2023-08-15T02:48:35.823Z,23.05
2023-08-15T02:48:47.769Z,23.05
2023-08-15T02:49:00.084Z,23.04
2023-08-15T02:49:12.037Z,23.00
2023-08-15T02:49:23.977Z,23.03
2023-08-15T02:49:35.921Z,23.03